Greenwald, Minnesota
Current Conditions -  °F | °C
As of 9:12 PM on Monday 20 Oct 2014 (Local Time) from KD39 Reporting Station
Clear Clear  
Wind Chill: 41°   Ceiling: Unl
Heat Index: 45°   Visibility: 10mi
Dew Point: 38°   Wind: 7mph
Humidity: 75%   Direction: 80°E
Pressure: 30.06"   Gusts: NA
Location:  45.6°N, 94.86°W
Report Text: KD39 210212Z AUTO 08006KT 10SM CLR 07/03 A3006 RMK AO2 T00720031
Loading
Personal Weather Stations






























Interactive Weather Map
Tropical Storm Tracking
New forecast layout! Learn more

10-Day Weather Forecast

Advertisements
Track Severe Weather on mobile